In Rescue
 
Open Full Screen Window  High Contrast Mode
Wind Gusting 39 knots
27
March 29, 2020 8:39 PM EDT
Weather Information
Wind Direction
  280 °
Wind Speed
  27 kt (31 mph)
Wind Gust
  39 kt (45 mph)
Altimeter
29.80 in
Visibility
10 SM
Temperature
09° C
48° F
Dewpoint
02° C
36° F
Humidity
62%
Sky Condition
Overcast @ 6,500 ft
Broken @ 5,500 ft
Scattered @ 3,600 ft
VFR

METAR KHAI 300039Z AUTO 28027G39KT 10SM SCT036 BKN055 OVC065 09/02 A2980 RMK AO2 T00880016

FAA Disclaimer: The data displayed is for advisory purposes only and is not to be used for flight planning or operations.